sensor_id;sensor_type;location;lat;lon;timestamp;P1;durP1;ratioP1;P2;durP2;ratioP2
22916;SDS011;11624;53.250;7.456;2022-10-23T00:01:37;34.10;;;15.40;;
22916;SDS011;11624;53.250;7.456;2022-10-23T00:04:07;36.72;;;14.43;;
22916;SDS011;11624;53.250;7.456;2022-10-23T00:06:39;43.28;;;14.38;;
22916;SDS011;11624;53.250;7.456;2022-10-23T00:09:09;36.60;;;14.25;;
22916;SDS011;11624;53.250;7.456;2022-10-23T00:11:39;39.13;;;14.73;;
22916;SDS011;11624;53.250;7.456;2022-10-23T00:14:07;33.60;;;13.57;;
22916;SDS011;11624;53.250;7.456;2022-10-23T00:16:35;34.40;;;13.82;;
22916;SDS011;11624;53.250;7.456;2022-10-23T00:19:04;29.70;;;13.95;;
22916;SDS011;11624;53.250;7.456;2022-10-23T00:21:32;32.38;;;13.45;;
22916;SDS011;11624;53.250;7.456;2022-10-23T00:24:02;32.45;;;14.30;;
22916;SDS011;11624;53.250;7.456;2022-10-23T00:26:30;36.45;;;14.20;;
22916;SDS011;11624;53.250;7.456;2022-10-23T00:28:58;36.28;;;12.85;;
22916;SDS011;11624;53.250;7.456;2022-10-23T00:31:26;34.58;;;12.95;;
22916;SDS011;11624;53.250;7.456;2022-10-23T00:33:54;31.13;;;13.73;;
22916;SDS011;11624;53.250;7.456;2022-10-23T00:36:22;32.13;;;13.27;;
22916;SDS011;11624;53.250;7.456;2022-10-23T00:38:50;29.83;;;12.68;;
22916;SDS011;11624;53.250;7.456;2022-10-23T00:41:22;29.83;;;13.60;;
22916;SDS011;11624;53.250;7.456;2022-10-23T00:43:55;29.08;;;13.43;;
22916;SDS011;11624;53.250;7.456;2022-10-23T00:46:26;31.70;;;12.75;;
22916;SDS011;11624;53.250;7.456;2022-10-23T00:48:55;32.53;;;13.00;;
22916;SDS011;11624;53.250;7.456;2022-10-23T00:51:24;35.35;;;13.52;;
22916;SDS011;11624;53.250;7.456;2022-10-23T00:53:57;29.58;;;12.50;;
22916;SDS011;11624;53.250;7.456;2022-10-23T00:56:48;32.75;;;12.52;;
22916;SDS011;11624;53.250;7.456;2022-10-23T00:59:16;24.73;;;11.68;;
22916;SDS011;11624;53.250;7.456;2022-10-23T01:01:44;34.88;;;13.30;;
22916;SDS011;11624;53.250;7.456;2022-10-23T01:04:14;27.77;;;12.45;;
22916;SDS011;11624;53.250;7.456;2022-10-23T01:06:44;23.50;;;12.25;;
22916;SDS011;11624;53.250;7.456;2022-10-23T01:09:20;33.28;;;12.85;;
22916;SDS011;11624;53.250;7.456;2022-10-23T01:11:57;31.45;;;13.60;;
22916;SDS011;11624;53.250;7.456;2022-10-23T01:14:34;32.63;;;13.25;;
22916;SDS011;11624;53.250;7.456;2022-10-23T01:17:11;31.80;;;12.68;;
22916;SDS011;11624;53.250;7.456;2022-10-23T01:19:49;30.67;;;12.93;;
22916;SDS011;11624;53.250;7.456;2022-10-23T01:22:37;27.05;;;13.00;;
22916;SDS011;11624;53.250;7.456;2022-10-23T01:25:22;39.20;;;12.98;;
22916;SDS011;11624;53.250;7.456;2022-10-23T01:28:07;32.90;;;12.82;;
22916;SDS011;11624;53.250;7.456;2022-10-23T01:30:39;29.45;;;13.48;;
22916;SDS011;11624;53.250;7.456;2022-10-23T01:33:13;38.25;;;13.65;;
22916;SDS011;11624;53.250;7.456;2022-10-23T01:35:48;32.80;;;13.82;;
22916;SDS011;11624;53.250;7.456;2022-10-23T01:38:20;33.70;;;13.23;;
22916;SDS011;11624;53.250;7.456;2022-10-23T01:40:57;30.55;;;13.25;;
22916;SDS011;11624;53.250;7.456;2022-10-23T01:43:30;34.00;;;13.45;;
22916;SDS011;11624;53.250;7.456;2022-10-23T01:46:04;31.90;;;14.10;;
22916;SDS011;11624;53.250;7.456;2022-10-23T01:48:38;30.33;;;13.07;;
22916;SDS011;11624;53.250;7.456;2022-10-23T01:51:09;32.42;;;13.50;;
22916;SDS011;11624;53.250;7.456;2022-10-23T01:53:41;34.92;;;12.63;;
22916;SDS011;11624;53.250;7.456;2022-10-23T01:56:14;32.92;;;13.68;;
22916;SDS011;11624;53.250;7.456;2022-10-23T01:58:48;32.85;;;12.88;;
22916;SDS011;11624;53.250;7.456;2022-10-23T02:01:21;32.90;;;12.60;;
22916;SDS011;11624;53.250;7.456;2022-10-23T02:03:52;30.52;;;13.43;;
22916;SDS011;11624;53.250;7.456;2022-10-23T02:06:25;31.48;;;13.52;;
22916;SDS011;11624;53.250;7.456;2022-10-23T02:08:54;34.13;;;13.63;;
22916;SDS011;11624;53.250;7.456;2022-10-23T02:11:23;33.65;;;12.65;;
22916;SDS011;11624;53.250;7.456;2022-10-23T02:13:53;30.02;;;12.75;;
22916;SDS011;11624;53.250;7.456;2022-10-23T02:16:28;37.05;;;13.38;;
22916;SDS011;11624;53.250;7.456;2022-10-23T02:19:06;34.05;;;12.65;;
22916;SDS011;11624;53.250;7.456;2022-10-23T02:21:47;38.53;;;13.50;;
22916;SDS011;11624;53.250;7.456;2022-10-23T02:24:19;34.22;;;12.63;;
22916;SDS011;11624;53.250;7.456;2022-10-23T02:26:55;30.55;;;13.27;;
22916;SDS011;11624;53.250;7.456;2022-10-23T02:29:30;33.13;;;13.18;;
22916;SDS011;11624;53.250;7.456;2022-10-23T02:32:02;36.92;;;13.40;;
22916;SDS011;11624;53.250;7.456;2022-10-23T02:34:31;38.20;;;13.30;;
22916;SDS011;11624;53.250;7.456;2022-10-23T02:36:59;30.70;;;12.95;;
22916;SDS011;11624;53.250;7.456;2022-10-23T02:39:27;35.92;;;13.50;;
22916;SDS011;11624;53.250;7.456;2022-10-23T02:41:56;35.08;;;13.07;;
22916;SDS011;11624;53.250;7.456;2022-10-23T02:44:37;31.00;;;13.43;;
22916;SDS011;11624;53.250;7.456;2022-10-23T02:47:13;34.38;;;13.48;;
22916;SDS011;11624;53.250;7.456;2022-10-23T02:49:56;31.25;;;13.57;;
22916;SDS011;11624;53.250;7.456;2022-10-23T02:52:31;36.45;;;13.70;;
22916;SDS011;11624;53.250;7.456;2022-10-23T02:55:06;31.90;;;12.73;;
22916;SDS011;11624;53.250;7.456;2022-10-23T02:57:48;30.13;;;12.65;;
22916;SDS011;11624;53.250;7.456;2022-10-23T03:00:22;35.17;;;13.50;;
22916;SDS011;11624;53.250;7.456;2022-10-23T03:02:52;32.83;;;13.20;;
22916;SDS011;11624;53.250;7.456;2022-10-23T03:05:28;38.22;;;13.80;;
22916;SDS011;11624;53.250;7.456;2022-10-23T03:07:58;29.48;;;12.63;;
22916;SDS011;11624;53.250;7.456;2022-10-23T03:10:29;34.03;;;12.90;;
22916;SDS011;11624;53.250;7.456;2022-10-23T03:12:57;32.33;;;12.85;;
22916;SDS011;11624;53.250;7.456;2022-10-23T03:15:31;28.75;;;11.50;;
22916;SDS011;11624;53.250;7.456;2022-10-23T03:17:59;33.55;;;12.38;;
22916;SDS011;11624;53.250;7.456;2022-10-23T03:20:27;33.13;;;12.20;;
22916;SDS011;11624;53.250;7.456;2022-10-23T03:22:55;33.38;;;13.02;;
22916;SDS011;11624;53.250;7.456;2022-10-23T03:25:25;31.92;;;12.45;;
22916;SDS011;11624;53.250;7.456;2022-10-23T03:27:56;29.27;;;12.27;;
22916;SDS011;11624;53.250;7.456;2022-10-23T03:30:24;30.63;;;12.55;;
22916;SDS011;11624;53.250;7.456;2022-10-23T03:32:54;27.73;;;12.30;;
22916;SDS011;11624;53.250;7.456;2022-10-23T03:35:22;28.52;;;12.45;;
22916;SDS011;11624;53.250;7.456;2022-10-23T03:37:50;29.00;;;11.82;;
22916;SDS011;11624;53.250;7.456;2022-10-23T03:40:19;30.20;;;11.95;;
22916;SDS011;11624;53.250;7.456;2022-10-23T03:42:47;30.60;;;11.82;;
22916;SDS011;11624;53.250;7.456;2022-10-23T03:45:17;27.38;;;11.85;;
22916;SDS011;11624;53.250;7.456;2022-10-23T03:47:47;35.72;;;12.88;;
22916;SDS011;11624;53.250;7.456;2022-10-23T03:50:18;32.50;;;13.23;;
22916;SDS011;11624;53.250;7.456;2022-10-23T03:52:46;30.70;;;12.57;;
22916;SDS011;11624;53.250;7.456;2022-10-23T03:55:14;32.42;;;13.23;;
22916;SDS011;11624;53.250;7.456;2022-10-23T03:57:43;32.50;;;12.93;;
22916;SDS011;11624;53.250;7.456;2022-10-23T04:00:11;36.17;;;13.02;;
22916;SDS011;11624;53.250;7.456;2022-10-23T04:02:42;41.03;;;14.90;;
22916;SDS011;11624;53.250;7.456;2022-10-23T04:05:11;32.63;;;13.32;;
22916;SDS011;11624;53.250;7.456;2022-10-23T04:07:50;30.23;;;13.73;;
22916;SDS011;11624;53.250;7.456;2022-10-23T04:10:18;32.70;;;12.77;;
22916;SDS011;11624;53.250;7.456;2022-10-23T04:12:47;32.45;;;12.68;;
22916;SDS011;11624;53.250;7.456;2022-10-23T04:15:15;32.88;;;13.00;;
22916;SDS011;11624;53.250;7.456;2022-10-23T04:17:44;32.78;;;12.40;;
22916;SDS011;11624;53.250;7.456;2022-10-23T04:20:12;33.20;;;13.43;;
22916;SDS011;11624;53.250;7.456;2022-10-23T04:22:41;33.95;;;13.60;;
22916;SDS011;11624;53.250;7.456;2022-10-23T04:25:11;36.55;;;13.65;;
22916;SDS011;11624;53.250;7.456;2022-10-23T04:27:39;35.67;;;13.77;;
22916;SDS011;11624;53.250;7.456;2022-10-23T04:30:08;40.85;;;13.65;;
22916;SDS011;11624;53.250;7.456;2022-10-23T04:32:37;32.90;;;13.60;;
22916;SDS011;11624;53.250;7.456;2022-10-23T04:35:06;31.08;;;12.52;;
22916;SDS011;11624;53.250;7.456;2022-10-23T04:37:34;34.53;;;14.35;;
22916;SDS011;11624;53.250;7.456;2022-10-23T04:40:02;35.38;;;14.02;;
22916;SDS011;11624;53.250;7.456;2022-10-23T04:42:35;36.90;;;14.43;;
22916;SDS011;11624;53.250;7.456;2022-10-23T04:45:03;34.28;;;14.60;;
22916;SDS011;11624;53.250;7.456;2022-10-23T04:47:33;43.95;;;15.23;;
22916;SDS011;11624;53.250;7.456;2022-10-23T04:50:03;34.75;;;14.48;;
22916;SDS011;11624;53.250;7.456;2022-10-23T04:52:52;39.25;;;14.60;;
22916;SDS011;11624;53.250;7.456;2022-10-23T04:55:49;34.75;;;14.27;;
22916;SDS011;11624;53.250;7.456;2022-10-23T04:58:28;34.65;;;13.88;;
22916;SDS011;11624;53.250;7.456;2022-10-23T05:00:56;34.60;;;14.18;;
22916;SDS011;11624;53.250;7.456;2022-10-23T05:03:25;35.40;;;14.43;;
22916;SDS011;11624;53.250;7.456;2022-10-23T05:05:54;45.42;;;14.82;;
22916;SDS011;11624;53.250;7.456;2022-10-23T05:08:42;37.45;;;14.40;;
22916;SDS011;11624;53.250;7.456;2022-10-23T05:11:29;37.75;;;14.82;;
22916;SDS011;11624;53.250;7.456;2022-10-23T05:13:58;37.83;;;14.85;;
22916;SDS011;11624;53.250;7.456;2022-10-23T05:16:31;32.53;;;14.23;;
22916;SDS011;11624;53.250;7.456;2022-10-23T05:19:04;40.00;;;15.98;;
22916;SDS011;11624;53.250;7.456;2022-10-23T05:21:36;43.58;;;16.30;;
22916;SDS011;11624;53.250;7.456;2022-10-23T05:24:07;41.45;;;15.98;;
22916;SDS011;11624;53.250;7.456;2022-10-23T05:26:37;38.55;;;15.32;;
22916;SDS011;11624;53.250;7.456;2022-10-23T05:29:08;34.90;;;14.77;;
22916;SDS011;11624;53.250;7.456;2022-10-23T05:31:36;39.95;;;15.93;;
22916;SDS011;11624;53.250;7.456;2022-10-23T05:34:10;47.63;;;16.05;;
22916;SDS011;11624;53.250;7.456;2022-10-23T05:36:42;47.50;;;16.52;;
22916;SDS011;11624;53.250;7.456;2022-10-23T05:39:12;44.33;;;17.25;;
22916;SDS011;11624;53.250;7.456;2022-10-23T05:41:40;36.72;;;15.82;;
22916;SDS011;11624;53.250;7.456;2022-10-23T05:44:10;40.65;;;16.02;;
22916;SDS011;11624;53.250;7.456;2022-10-23T05:46:57;46.25;;;16.52;;
22916;SDS011;11624;53.250;7.456;2022-10-23T05:49:51;45.65;;;16.80;;
22916;SDS011;11624;53.250;7.456;2022-10-23T05:52:37;42.28;;;16.48;;
22916;SDS011;11624;53.250;7.456;2022-10-23T05:55:25;44.80;;;16.17;;
22916;SDS011;11624;53.250;7.456;2022-10-23T05:57:53;43.15;;;16.00;;
22916;SDS011;11624;53.250;7.456;2022-10-23T06:00:55;34.35;;;15.60;;
22916;SDS011;11624;53.250;7.456;2022-10-23T06:03:46;43.17;;;16.33;;
22916;SDS011;11624;53.250;7.456;2022-10-23T06:06:16;43.88;;;16.45;;
22916;SDS011;11624;53.250;7.456;2022-10-23T06:08:47;35.05;;;15.65;;
22916;SDS011;11624;53.250;7.456;2022-10-23T06:11:18;37.25;;;15.65;;
22916;SDS011;11624;53.250;7.456;2022-10-23T06:13:57;42.08;;;16.52;;
22916;SDS011;11624;53.250;7.456;2022-10-23T06:16:28;37.15;;;16.05;;
22916;SDS011;11624;53.250;7.456;2022-10-23T06:18:56;39.20;;;16.40;;
22916;SDS011;11624;53.250;7.456;2022-10-23T06:21:25;40.63;;;15.05;;
22916;SDS011;11624;53.250;7.456;2022-10-23T06:23:54;40.63;;;15.60;;
22916;SDS011;11624;53.250;7.456;2022-10-23T06:26:46;42.25;;;15.63;;
22916;SDS011;11624;53.250;7.456;2022-10-23T06:29:19;38.92;;;15.65;;
22916;SDS011;11624;53.250;7.456;2022-10-23T06:31:50;41.08;;;16.35;;
22916;SDS011;11624;53.250;7.456;2022-10-23T06:34:18;41.67;;;15.60;;
22916;SDS011;11624;53.250;7.456;2022-10-23T06:36:46;46.13;;;18.20;;
22916;SDS011;11624;53.250;7.456;2022-10-23T06:39:43;45.03;;;19.23;;
22916;SDS011;11624;53.250;7.456;2022-10-23T06:42:23;45.25;;;18.48;;
22916;SDS011;11624;53.250;7.456;2022-10-23T06:44:53;35.70;;;16.20;;
22916;SDS011;11624;53.250;7.456;2022-10-23T06:47:49;34.15;;;15.35;;
22916;SDS011;11624;53.250;7.456;2022-10-23T06:50:36;42.97;;;15.50;;
22916;SDS011;11624;53.250;7.456;2022-10-23T06:53:10;38.60;;;15.45;;
22916;SDS011;11624;53.250;7.456;2022-10-23T06:55:44;33.08;;;14.38;;
22916;SDS011;11624;53.250;7.456;2022-10-23T06:58:18;35.70;;;15.77;;
22916;SDS011;11624;53.250;7.456;2022-10-23T07:01:07;36.58;;;14.85;;
22916;SDS011;11624;53.250;7.456;2022-10-23T07:03:41;39.97;;;14.82;;
22916;SDS011;11624;53.250;7.456;2022-10-23T07:06:11;36.20;;;15.77;;
22916;SDS011;11624;53.250;7.456;2022-10-23T07:08:39;37.70;;;15.70;;
22916;SDS011;11624;53.250;7.456;2022-10-23T07:11:45;38.67;;;16.08;;
22916;SDS011;11624;53.250;7.456;2022-10-23T07:14:13;39.80;;;16.35;;
22916;SDS011;11624;53.250;7.456;2022-10-23T07:16:42;45.40;;;16.73;;
22916;SDS011;11624;53.250;7.456;2022-10-23T07:19:11;42.92;;;16.38;;
22916;SDS011;11624;53.250;7.456;2022-10-23T07:21:45;37.38;;;16.95;;
22916;SDS011;11624;53.250;7.456;2022-10-23T07:24:34;37.00;;;15.43;;
22916;SDS011;11624;53.250;7.456;2022-10-23T07:27:12;35.08;;;15.10;;
22916;SDS011;11624;53.250;7.456;2022-10-23T07:29:41;45.03;;;15.65;;
22916;SDS011;11624;53.250;7.456;2022-10-23T07:32:09;33.67;;;15.88;;
22916;SDS011;11624;53.250;7.456;2022-10-23T07:34:57;41.40;;;16.63;;
22916;SDS011;11624;53.250;7.456;2022-10-23T07:37:31;40.75;;;15.13;;
22916;SDS011;11624;53.250;7.456;2022-10-23T07:40:02;33.10;;;14.27;;
22916;SDS011;11624;53.250;7.456;2022-10-23T07:42:34;36.75;;;15.95;;
22916;SDS011;11624;53.250;7.456;2022-10-23T07:45:02;36.17;;;14.80;;
22916;SDS011;11624;53.250;7.456;2022-10-23T07:47:33;32.28;;;14.73;;
22916;SDS011;11624;53.250;7.456;2022-10-23T07:50:03;36.67;;;15.80;;
22916;SDS011;11624;53.250;7.456;2022-10-23T07:52:33;35.58;;;14.55;;
22916;SDS011;11624;53.250;7.456;2022-10-23T07:55:10;37.80;;;15.48;;
22916;SDS011;11624;53.250;7.456;2022-10-23T07:57:51;37.78;;;14.30;;
22916;SDS011;11624;53.250;7.456;2022-10-23T08:00:42;35.22;;;15.90;;
22916;SDS011;11624;53.250;7.456;2022-10-23T08:03:25;35.78;;;15.18;;
22916;SDS011;11624;53.250;7.456;2022-10-23T08:05:55;31.73;;;14.55;;
22916;SDS011;11624;53.250;7.456;2022-10-23T08:08:24;34.70;;;15.23;;
22916;SDS011;11624;53.250;7.456;2022-10-23T08:10:59;35.58;;;15.85;;
22916;SDS011;11624;53.250;7.456;2022-10-23T08:13:32;33.85;;;15.07;;
22916;SDS011;11624;53.250;7.456;2022-10-23T08:16:03;33.55;;;14.95;;
22916;SDS011;11624;53.250;7.456;2022-10-23T08:18:55;34.63;;;14.68;;
22916;SDS011;11624;53.250;7.456;2022-10-23T08:21:24;33.10;;;14.43;;
22916;SDS011;11624;53.250;7.456;2022-10-23T08:23:53;31.60;;;14.90;;
22916;SDS011;11624;53.250;7.456;2022-10-23T08:26:22;28.45;;;14.30;;
22916;SDS011;11624;53.250;7.456;2022-10-23T08:28:51;36.70;;;15.85;;
22916;SDS011;11624;53.250;7.456;2022-10-23T08:31:21;32.03;;;14.60;;
22916;SDS011;11624;53.250;7.456;2022-10-23T08:34:06;34.17;;;14.57;;
22916;SDS011;11624;53.250;7.456;2022-10-23T08:36:36;33.42;;;14.60;;
22916;SDS011;11624;53.250;7.456;2022-10-23T08:39:06;32.08;;;14.43;;
22916;SDS011;11624;53.250;7.456;2022-10-23T08:41:37;31.58;;;14.10;;
22916;SDS011;11624;53.250;7.456;2022-10-23T08:44:15;27.60;;;13.55;;
22916;SDS011;11624;53.250;7.456;2022-10-23T08:46:48;27.50;;;13.30;;
22916;SDS011;11624;53.250;7.456;2022-10-23T08:49:42;29.17;;;13.30;;
22916;SDS011;11624;53.250;7.456;2022-10-23T08:52:19;33.88;;;14.18;;
22916;SDS011;11624;53.250;7.456;2022-10-23T08:54:55;28.50;;;13.32;;
22916;SDS011;11624;53.250;7.456;2022-10-23T08:57:27;27.95;;;13.70;;
22916;SDS011;11624;53.250;7.456;2022-10-23T09:00:07;29.10;;;13.15;;
22916;SDS011;11624;53.250;7.456;2022-10-23T09:02:41;35.95;;;14.07;;
22916;SDS011;11624;53.250;7.456;2022-10-23T09:05:12;29.05;;;13.82;;
22916;SDS011;11624;53.250;7.456;2022-10-23T09:07:49;25.73;;;12.75;;
22916;SDS011;11624;53.250;7.456;2022-10-23T09:10:31;26.98;;;13.32;;
22916;SDS011;11624;53.250;7.456;2022-10-23T09:13:17;27.77;;;12.85;;
22916;SDS011;11624;53.250;7.456;2022-10-23T09:15:55;28.80;;;12.32;;
22916;SDS011;11624;53.250;7.456;2022-10-23T09:18:32;25.55;;;12.65;;
22916;SDS011;11624;53.250;7.456;2022-10-23T09:21:00;23.48;;;12.10;;
22916;SDS011;11624;53.250;7.456;2022-10-23T09:23:33;25.23;;;12.38;;
22916;SDS011;11624;53.250;7.456;2022-10-23T09:26:03;23.10;;;12.15;;
22916;SDS011;11624;53.250;7.456;2022-10-23T09:28:41;24.40;;;11.77;;
22916;SDS011;11624;53.250;7.456;2022-10-23T09:31:12;26.30;;;10.98;;
22916;SDS011;11624;53.250;7.456;2022-10-23T09:33:52;22.98;;;10.27;;
22916;SDS011;11624;53.250;7.456;2022-10-23T09:36:21;20.25;;;9.68;;
22916;SDS011;11624;53.250;7.456;2022-10-23T09:38:53;20.90;;;10.35;;
22916;SDS011;11624;53.250;7.456;2022-10-23T09:41:24;19.17;;;9.48;;
22916;SDS011;11624;53.250;7.456;2022-10-23T09:44:12;19.20;;;8.20;;
22916;SDS011;11624;53.250;7.456;2022-10-23T09:46:47;21.20;;;9.43;;
22916;SDS011;11624;53.250;7.456;2022-10-23T09:49:22;21.48;;;8.70;;
22916;SDS011;11624;53.250;7.456;2022-10-23T09:51:53;22.83;;;8.88;;
22916;SDS011;11624;53.250;7.456;2022-10-23T09:54:27;19.38;;;8.63;;
22916;SDS011;11624;53.250;7.456;2022-10-23T09:56:58;21.10;;;8.60;;
22916;SDS011;11624;53.250;7.456;2022-10-23T09:59:30;21.27;;;7.82;;
22916;SDS011;11624;53.250;7.456;2022-10-23T10:02:01;18.23;;;7.47;;
22916;SDS011;11624;53.250;7.456;2022-10-23T10:05:10;16.23;;;7.45;;
22916;SDS011;11624;53.250;7.456;2022-10-23T10:07:52;18.40;;;7.40;;
22916;SDS011;11624;53.250;7.456;2022-10-23T10:10:24;19.58;;;6.80;;
22916;SDS011;11624;53.250;7.456;2022-10-23T10:12:57;19.45;;;7.65;;
22916;SDS011;11624;53.250;7.456;2022-10-23T10:15:28;15.73;;;7.07;;
22916;SDS011;11624;53.250;7.456;2022-10-23T10:18:08;21.45;;;7.18;;
22916;SDS011;11624;53.250;7.456;2022-10-23T10:20:46;15.82;;;6.30;;
22916;SDS011;11624;53.250;7.456;2022-10-23T10:23:26;15.30;;;6.72;;
22916;SDS011;11624;53.250;7.456;2022-10-23T10:26:05;14.63;;;6.30;;
22916;SDS011;11624;53.250;7.456;2022-10-23T10:28:47;15.48;;;6.10;;
22916;SDS011;11624;53.250;7.456;2022-10-23T10:31:29;18.40;;;6.63;;
22916;SDS011;11624;53.250;7.456;2022-10-23T10:34:04;17.58;;;6.50;;
22916;SDS011;11624;53.250;7.456;2022-10-23T10:36:40;14.77;;;6.63;;
22916;SDS011;11624;53.250;7.456;2022-10-23T10:39:17;13.93;;;6.72;;
22916;SDS011;11624;53.250;7.456;2022-10-23T10:41:58;21.40;;;8.05;;
22916;SDS011;11624;53.250;7.456;2022-10-23T10:47:28;18.45;;;7.03;;
22916;SDS011;11624;53.250;7.456;2022-10-23T10:50:06;22.00;;;11.75;;
22916;SDS011;11624;53.250;7.456;2022-10-23T10:53:11;36.08;;;25.45;;
22916;SDS011;11624;53.250;7.456;2022-10-23T10:55:47;17.58;;;8.60;;
22916;SDS011;11624;53.250;7.456;2022-10-23T10:58:20;18.45;;;7.18;;
22916;SDS011;11624;53.250;7.456;2022-10-23T11:00:54;17.15;;;7.03;;
22916;SDS011;11624;53.250;7.456;2022-10-23T11:03:30;34.33;;;18.35;;
22916;SDS011;11624;53.250;7.456;2022-10-23T11:06:08;25.50;;;15.32;;
22916;SDS011;11624;53.250;7.456;2022-10-23T11:08:41;18.13;;;6.40;;
22916;SDS011;11624;53.250;7.456;2022-10-23T11:11:32;21.83;;;8.20;;
22916;SDS011;11624;53.250;7.456;2022-10-23T11:14:04;18.63;;;6.20;;
22916;SDS011;11624;53.250;7.456;2022-10-23T11:16:34;21.23;;;7.70;;
22916;SDS011;11624;53.250;7.456;2022-10-23T11:19:06;20.08;;;9.55;;
22916;SDS011;11624;53.250;7.456;2022-10-23T11:21:41;19.60;;;7.95;;
22916;SDS011;11624;53.250;7.456;2022-10-23T11:24:32;20.55;;;9.98;;
22916;SDS011;11624;53.250;7.456;2022-10-23T11:27:30;13.52;;;5.90;;
22916;SDS011;11624;53.250;7.456;2022-10-23T11:30:16;14.60;;;5.78;;
22916;SDS011;11624;53.250;7.456;2022-10-23T11:36:06;14.63;;;5.68;;
22916;SDS011;11624;53.250;7.456;2022-10-23T11:38:41;15.82;;;6.20;;
22916;SDS011;11624;53.250;7.456;2022-10-23T11:41:17;19.80;;;7.13;;
22916;SDS011;11624;53.250;7.456;2022-10-23T11:43:53;18.48;;;7.05;;
22916;SDS011;11624;53.250;7.456;2022-10-23T11:46:31;15.75;;;6.55;;
22916;SDS011;11624;53.250;7.456;2022-10-23T11:49:02;16.58;;;6.20;;
22916;SDS011;11624;53.250;7.456;2022-10-23T11:51:32;20.65;;;6.50;;
22916;SDS011;11624;53.250;7.456;2022-10-23T11:54:20;16.33;;;6.35;;
22916;SDS011;11624;53.250;7.456;2022-10-23T11:56:53;16.05;;;6.53;;
22916;SDS011;11624;53.250;7.456;2022-10-23T11:59:38;14.50;;;6.28;;
22916;SDS011;11624;53.250;7.456;2022-10-23T12:02:24;13.93;;;6.25;;
22916;SDS011;11624;53.250;7.456;2022-10-23T12:04:59;16.23;;;5.72;;
22916;SDS011;11624;53.250;7.456;2022-10-23T12:07:31;17.35;;;6.00;;
22916;SDS011;11624;53.250;7.456;2022-10-23T12:10:03;17.73;;;6.28;;
22916;SDS011;11624;53.250;7.456;2022-10-23T12:12:33;15.18;;;5.55;;
22916;SDS011;11624;53.250;7.456;2022-10-23T12:15:20;16.13;;;5.75;;
22916;SDS011;11624;53.250;7.456;2022-10-23T12:17:51;17.85;;;5.93;;
22916;SDS011;11624;53.250;7.456;2022-10-23T12:20:35;16.52;;;6.38;;
22916;SDS011;11624;53.250;7.456;2022-10-23T12:23:14;18.30;;;6.70;;
22916;SDS011;11624;53.250;7.456;2022-10-23T12:29:19;17.08;;;6.47;;
22916;SDS011;11624;53.250;7.456;2022-10-23T12:32:11;17.38;;;5.90;;
22916;SDS011;11624;53.250;7.456;2022-10-23T12:34:51;14.68;;;6.25;;
22916;SDS011;11624;53.250;7.456;2022-10-23T12:37:36;17.33;;;5.85;;
22916;SDS011;11624;53.250;7.456;2022-10-23T12:40:22;14.23;;;5.53;;
22916;SDS011;11624;53.250;7.456;2022-10-23T12:42:55;16.33;;;5.82;;
22916;SDS011;11624;53.250;7.456;2022-10-23T12:45:25;18.42;;;5.65;;
22916;SDS011;11624;53.250;7.456;2022-10-23T12:47:55;14.30;;;5.53;;
22916;SDS011;11624;53.250;7.456;2022-10-23T12:50:25;15.98;;;5.25;;
22916;SDS011;11624;53.250;7.456;2022-10-23T12:52:56;13.00;;;5.00;;
22916;SDS011;11624;53.250;7.456;2022-10-23T12:55:28;24.55;;;9.43;;
22916;SDS011;11624;53.250;7.456;2022-10-23T12:58:01;22.40;;;7.38;;
22916;SDS011;11624;53.250;7.456;2022-10-23T13:00:29;15.45;;;6.30;;
22916;SDS011;11624;53.250;7.456;2022-10-23T13:02:58;25.13;;;11.75;;
22916;SDS011;11624;53.250;7.456;2022-10-23T13:05:29;19.65;;;7.25;;
22916;SDS011;11624;53.250;7.456;2022-10-23T13:07:58;16.88;;;5.75;;
22916;SDS011;11624;53.250;7.456;2022-10-23T13:10:59;17.50;;;5.55;;
22916;SDS011;11624;53.250;7.456;2022-10-23T13:13:30;21.10;;;9.88;;
22916;SDS011;11624;53.250;7.456;2022-10-23T13:15:59;29.33;;;11.30;;
22916;SDS011;11624;53.250;7.456;2022-10-23T13:18:27;19.02;;;7.30;;
22916;SDS011;11624;53.250;7.456;2022-10-23T13:20:57;15.80;;;6.15;;
22916;SDS011;11624;53.250;7.456;2022-10-23T13:23:31;14.65;;;5.60;;
22916;SDS011;11624;53.250;7.456;2022-10-23T13:26:01;17.23;;;7.10;;
22916;SDS011;11624;53.250;7.456;2022-10-23T13:28:31;14.35;;;5.07;;
22916;SDS011;11624;53.250;7.456;2022-10-23T13:31:05;23.10;;;5.97;;
22916;SDS011;11624;53.250;7.456;2022-10-23T13:33:50;13.75;;;5.20;;
22916;SDS011;11624;53.250;7.456;2022-10-23T13:36:33;16.05;;;5.43;;
22916;SDS011;11624;53.250;7.456;2022-10-23T13:39:09;16.85;;;5.70;;
22916;SDS011;11624;53.250;7.456;2022-10-23T13:41:41;13.10;;;4.88;;
22916;SDS011;11624;53.250;7.456;2022-10-23T13:44:11;15.90;;;5.63;;
22916;SDS011;11624;53.250;7.456;2022-10-23T13:46:41;17.85;;;5.35;;
22916;SDS011;11624;53.250;7.456;2022-10-23T13:49:10;15.80;;;5.00;;
22916;SDS011;11624;53.250;7.456;2022-10-23T13:51:41;13.27;;;4.85;;
22916;SDS011;11624;53.250;7.456;2022-10-23T13:54:13;15.85;;;5.43;;
22916;SDS011;11624;53.250;7.456;2022-10-23T13:56:43;13.27;;;5.38;;
22916;SDS011;11624;53.250;7.456;2022-10-23T13:59:11;15.80;;;5.93;;
22916;SDS011;11624;53.250;7.456;2022-10-23T14:01:40;17.15;;;5.22;;
22916;SDS011;11624;53.250;7.456;2022-10-23T14:04:10;12.95;;;4.53;;
22916;SDS011;11624;53.250;7.456;2022-10-23T14:06:40;14.15;;;5.47;;
22916;SDS011;11624;53.250;7.456;2022-10-23T14:09:10;17.45;;;5.68;;
22916;SDS011;11624;53.250;7.456;2022-10-23T14:11:40;15.52;;;5.70;;
22916;SDS011;11624;53.250;7.456;2022-10-23T14:14:08;16.20;;;5.03;;
22916;SDS011;11624;53.250;7.456;2022-10-23T14:16:36;14.57;;;4.40;;
22916;SDS011;11624;53.250;7.456;2022-10-23T14:19:04;14.63;;;4.88;;
22916;SDS011;11624;53.250;7.456;2022-10-23T14:21:33;16.08;;;5.22;;
22916;SDS011;11624;53.250;7.456;2022-10-23T14:24:02;14.13;;;4.88;;
22916;SDS011;11624;53.250;7.456;2022-10-23T14:26:31;15.38;;;5.05;;
22916;SDS011;11624;53.250;7.456;2022-10-23T14:28:59;15.55;;;4.80;;
22916;SDS011;11624;53.250;7.456;2022-10-23T14:31:35;16.00;;;5.53;;
22916;SDS011;11624;53.250;7.456;2022-10-23T14:34:03;14.30;;;4.63;;
22916;SDS011;11624;53.250;7.456;2022-10-23T14:36:31;13.68;;;5.20;;
22916;SDS011;11624;53.250;7.456;2022-10-23T14:39:17;13.32;;;4.30;;
22916;SDS011;11624;53.250;7.456;2022-10-23T14:41:45;14.07;;;5.13;;
22916;SDS011;11624;53.250;7.456;2022-10-23T14:44:13;15.07;;;4.72;;
22916;SDS011;11624;53.250;7.456;2022-10-23T14:46:41;13.43;;;4.47;;
22916;SDS011;11624;53.250;7.456;2022-10-23T14:49:09;14.40;;;4.78;;
22916;SDS011;11624;53.250;7.456;2022-10-23T14:51:37;13.25;;;4.75;;
22916;SDS011;11624;53.250;7.456;2022-10-23T14:54:06;18.17;;;4.78;;
22916;SDS011;11624;53.250;7.456;2022-10-23T14:56:36;13.75;;;4.65;;
22916;SDS011;11624;53.250;7.456;2022-10-23T14:59:06;18.15;;;4.80;;
22916;SDS011;11624;53.250;7.456;2022-10-23T15:01:37;14.30;;;4.25;;
22916;SDS011;11624;53.250;7.456;2022-10-23T15:04:12;12.93;;;4.25;;
22916;SDS011;11624;53.250;7.456;2022-10-23T15:06:41;12.63;;;4.75;;
22916;SDS011;11624;53.250;7.456;2022-10-23T15:09:09;15.50;;;4.20;;
22916;SDS011;11624;53.250;7.456;2022-10-23T15:11:38;14.23;;;4.78;;
22916;SDS011;11624;53.250;7.456;2022-10-23T15:14:06;16.95;;;5.07;;
22916;SDS011;11624;53.250;7.456;2022-10-23T15:16:34;13.65;;;4.63;;